Time;durP1;ratioP1;P1;durP2;ratioP2;P2;SDS_P1;SDS_P2;PMS_P1;PMS_P2;Temp;Humidity;BMP_temperature;BMP_pressure;BME280_temperature;BME280_humidity;BME280_pressure;Samples;Min_cycle;Max_cycle;Signal;HPM_P1;HPM_P2
2023/07/28 00:01:01;;;;;;;4.50;1.60;;;;;;;17.59;82.55;99829.41;4968472;28;21317;-71
2023/07/28 00:03:27;;;;;;;3.90;1.47;;;;;;;17.58;82.50;99835.91;4974672;28;20208;-72
2023/07/28 00:05:54;;;;;;;2.80;1.60;;;;;;;17.60;82.68;99830.91;4974274;28;20234;-70
2023/07/28 00:08:20;;;;;;;1.80;1.50;;;;;;;17.63;82.38;99832.06;4976818;28;20741;-72
2023/07/28 00:10:47;;;;;;;3.37;1.60;;;;;;;17.64;82.38;99830.94;4974793;28;20788;-71
2023/07/28 00:13:13;;;;;;;2.33;1.50;;;;;;;17.65;82.26;99835.09;4966856;28;21159;-71
2023/07/28 00:15:39;;;;;;;3.37;1.50;;;;;;;17.65;82.23;99827.84;4972567;28;20605;-70
2023/07/28 00:18:07;;;;;;;2.07;1.27;;;;;;;17.66;82.40;99831.28;4974023;28;20608;-71
2023/07/28 00:20:33;;;;;;;2.20;1.73;;;;;;;17.66;82.61;99824.03;4973556;28;20655;-71
2023/07/28 00:23:00;;;;;;;1.70;1.60;;;;;;;17.67;82.88;99822.88;4975506;28;20247;-71
2023/07/28 00:25:26;;;;;;;2.07;1.60;;;;;;;17.69;82.40;99817.91;4976442;28;20731;-72
2023/07/28 00:27:53;;;;;;;2.80;1.23;;;;;;;17.69;82.37;99825.91;4974880;28;20876;-72
2023/07/28 00:30:19;;;;;;;1.30;1.13;;;;;;;17.71;82.57;99820.97;4974642;28;20208;-71
2023/07/28 00:32:47;;;;;;;2.80;1.53;;;;;;;17.72;82.62;99822.47;4991109;28;20904;-72
2023/07/28 00:35:15;;;;;;;1.90;1.23;;;;;;;17.73;82.67;99812.53;4992919;28;20209;-71
2023/07/28 00:37:42;;;;;;;3.40;1.30;;;;;;;17.74;82.34;99812.16;4976734;28;20687;-71
2023/07/28 00:40:09;;;;;;;2.53;1.30;;;;;;;17.75;82.37;99808.34;4976441;28;20208;-71
2023/07/28 00:42:35;;;;;;;1.77;1.00;;;;;;;17.76;82.18;99806.44;4988544;28;21380;-71
2023/07/28 00:45:02;;;;;;;1.57;1.20;;;;;;;17.78;82.41;99815.56;4974160;28;20281;-71
2023/07/28 00:47:28;;;;;;;1.23;1.00;;;;;;;17.78;82.28;99812.13;4973031;28;20231;-71
2023/07/28 00:49:54;;;;;;;2.50;1.40;;;;;;;17.78;82.49;99806.78;4970963;28;20214;-71
2023/07/28 00:52:22;;;;;;;1.17;1.07;;;;;;;17.80;82.41;99801.84;4975472;28;20212;-71
2023/07/28 00:54:49;;;;;;;1.90;1.20;;;;;;;17.81;82.60;99806.75;4974289;28;20795;-72
2023/07/28 00:57:16;;;;;;;1.50;1.30;;;;;;;17.82;82.28;99799.53;4973892;28;20227;-71
2023/07/28 00:59:42;;;;;;;1.53;1.33;;;;;;;17.83;82.25;99793.03;4973822;28;20212;-70
2023/07/28 01:02:09;;;;;;;1.67;0.90;;;;;;;17.83;82.25;99793.78;4972139;28;20232;-71
2023/07/28 01:04:35;;;;;;;1.47;1.10;;;;;;;17.85;82.47;99798.75;4973601;28;20204;-72
2023/07/28 01:07:09;;;;;;;3.00;1.20;;;;;;;17.84;82.27;99795.31;4972906;28;20587;-70
2023/07/28 01:09:56;;;;;;;1.30;1.10;;;;;;;17.85;82.29;99793.41;4986125;28;20369;-70
2023/07/28 01:12:24;;;;;;;1.30;1.20;;;;;;;17.86;82.46;99793.00;4974120;28;20261;-71
2023/07/28 01:14:51;;;;;;;5.60;1.20;;;;;;;17.88;82.29;99784.59;4972029;28;20681;-70
2023/07/28 01:17:18;;;;;;;3.07;1.20;;;;;;;17.88;82.42;99787.25;4973846;28;20767;-70
2023/07/28 01:19:44;;;;;;;1.13;1.00;;;;;;;17.89;82.47;99784.22;4988845;28;20211;-71
2023/07/28 01:22:38;;;;;;;3.80;1.30;;;;;;;17.90;82.56;99793.72;4989232;28;20212;-71
2023/07/28 01:25:19;;;;;;;1.17;1.07;;;;;;;17.91;82.46;99791.84;4973128;28;20227;-71
2023/07/28 01:27:47;;;;;;;0.90;0.90;;;;;;;17.91;82.75;99787.22;4971449;28;20227;-72
2023/07/28 01:30:14;;;;;;;1.03;1.00;;;;;;;17.92;82.63;99788.00;4972820;28;20223;-71
2023/07/28 01:32:40;;;;;;;2.67;1.23;;;;;;;17.93;82.66;99784.94;4973448;28;20730;-72
2023/07/28 01:35:08;;;;;;;0.80;0.80;;;;;;;17.92;82.97;99786.09;4971614;28;20677;-71
2023/07/28 01:37:34;;;;;;;1.07;0.97;;;;;;;17.93;82.96;99787.63;4969720;28;20227;-71
2023/07/28 01:40:01;;;;;;;1.10;1.00;;;;;;;17.94;82.79;99783.78;4972341;28;20212;-72
2023/07/28 01:42:27;;;;;;;2.20;0.90;;;;;;;17.96;82.72;99783.41;4972212;28;21453;-72
2023/07/28 01:44:55;;;;;;;1.40;1.03;;;;;;;17.97;82.80;99777.66;4972545;28;20211;-71
2023/07/28 01:47:21;;;;;;;3.47;1.40;;;;;;;17.96;82.96;99776.13;4972954;28;21227;-71
2023/07/28 01:49:47;;;;;;;1.00;1.00;;;;;;;17.99;82.95;99777.25;4990838;28;20645;-72
2023/07/28 01:52:15;;;;;;;1.00;1.00;;;;;;;17.98;82.79;99779.19;4971256;28;20230;-71
2023/07/28 01:54:41;;;;;;;1.10;1.00;;;;;;;17.99;82.69;99772.69;4971963;28;20212;-72
2023/07/28 01:57:08;;;;;;;2.37;0.90;;;;;;;17.99;83.06;99774.59;4973375;28;20203;-70
2023/07/28 01:59:34;;;;;;;1.83;1.10;;;;;;;18.00;83.26;99774.19;4973340;28;20218;-72
2023/07/28 02:02:02;;;;;;;1.53;1.03;;;;;;;17.99;83.15;99783.38;4972781;28;20694;-71
2023/07/28 02:04:28;;;;;;;1.30;1.00;;;;;;;18.01;83.06;99769.63;4975363;28;21348;-71
2023/07/28 02:06:55;;;;;;;2.83;1.53;;;;;;;18.03;82.69;99778.75;4972206;28;20226;-71
2023/07/28 02:09:21;;;;;;;1.40;1.00;;;;;;;18.01;83.00;99774.97;4973222;28;20207;-70
2023/07/28 02:11:47;;;;;;;1.13;1.00;;;;;;;18.02;82.91;99771.91;4971593;28;20226;-71
2023/07/28 02:14:14;;;;;;;2.20;1.03;;;;;;;18.01;83.35;99770.38;4971738;28;20218;-71
2023/07/28 02:16:40;;;;;;;1.00;0.90;;;;;;;18.04;82.93;99768.81;4974702;28;21132;-71
2023/07/28 02:19:09;;;;;;;1.20;1.10;;;;;;;18.05;83.00;99767.69;4973466;28;20981;-71
2023/07/28 02:21:35;;;;;;;1.83;1.00;;;;;;;18.06;82.90;99771.88;4970940;28;20706;-71
2023/07/28 02:24:01;;;;;;;1.00;0.90;;;;;;;18.03;83.28;99768.06;4971380;28;21320;-71
2023/07/28 02:26:28;;;;;;;1.00;0.90;;;;;;;18.05;83.17;99767.69;4972077;28;20312;-70
2023/07/28 02:28:54;;;;;;;0.90;0.80;;;;;;;18.07;83.14;99768.78;4989688;28;20312;-71
2023/07/28 02:31:21;;;;;;;1.53;1.10;;;;;;;18.07;82.98;99776.06;4988013;28;20215;-71
2023/07/28 02:33:47;;;;;;;4.07;1.07;;;;;;;18.07;83.00;99774.13;4972486;28;20519;-70
2023/07/28 02:36:15;;;;;;;3.63;1.43;;;;;;;18.08;83.01;99775.66;4972954;28;20210;-70
2023/07/28 02:38:42;;;;;;;2.10;1.00;;;;;;;18.09;83.18;99773.75;4971699;28;20744;-71
2023/07/28 02:41:08;;;;;;;1.30;1.20;;;;;;;18.09;83.13;99782.53;4971511;28;20211;-70
2023/07/28 02:43:34;;;;;;;1.10;1.03;;;;;;;18.11;82.97;99779.47;4971842;28;20212;-71
2023/07/28 02:46:01;;;;;;;2.87;1.10;;;;;;;18.12;82.95;99778.31;4986534;28;20873;-71
2023/07/28 02:48:27;;;;;;;1.00;0.90;;;;;;;18.13;82.84;99782.50;4972193;28;20455;-70
2023/07/28 02:50:54;;;;;;;0.93;0.90;;;;;;;18.13;83.14;99774.47;4973072;28;20918;-71
2023/07/28 02:53:22;;;;;;;1.03;1.00;;;;;;;18.11;82.96;99780.22;4972403;28;20556;-71
2023/07/28 02:55:48;;;;;;;0.77;0.77;;;;;;;18.16;83.07;99779.03;4977088;28;20689;-71
2023/07/28 02:58:15;;;;;;;1.17;1.00;;;;;;;18.15;82.94;99780.94;4974027;28;20394;-71
2023/07/28 03:00:43;;;;;;;1.40;1.07;;;;;;;18.16;82.78;99777.13;4976553;28;21370;-72
2023/07/28 03:03:11;;;;;;;1.40;0.97;;;;;;;18.16;83.25;99782.47;4975801;28;20694;-72
2023/07/28 03:05:39;;;;;;;1.40;1.30;;;;;;;18.15;82.64;99783.63;4994497;28;20212;-72
2023/07/28 03:08:26;;;;;;;3.07;2.03;;;;;;;18.18;82.80;99780.16;4976251;28;20685;-72
2023/07/28 03:10:58;;;;;;;1.67;1.50;;;;;;;18.17;83.20;99783.22;4994783;28;20843;-73
2023/07/28 03:13:25;;;;;;;1.20;1.10;;;;;;;18.18;82.99;99774.81;4976378;28;20211;-72
2023/07/28 03:15:51;;;;;;;1.07;0.97;;;;;;;18.17;83.47;99780.56;4979747;28;20793;-73
2023/07/28 03:18:21;;;;;;;0.97;0.90;;;;;;;18.17;83.27;99781.31;4975411;28;21211;-72
2023/07/28 03:20:48;;;;;;;4.10;1.10;;;;;;;18.19;83.31;99780.91;4978407;28;20597;-70
2023/07/28 03:23:15;;;;;;;2.40;1.03;;;;;;;18.21;83.28;99775.94;4976445;28;20208;-71
2023/07/28 03:25:42;;;;;;;0.90;0.90;;;;;;;18.21;83.05;99776.69;4994933;28;21261;-71
2023/07/28 03:28:09;;;;;;;0.93;0.93;;;;;;;18.20;83.33;99777.84;4992619;28;20331;-72
2023/07/28 03:30:35;;;;;;;1.47;1.03;;;;;;;18.20;83.35;99772.50;4973395;28;21109;-72
2023/07/28 03:33:02;;;;;;;2.83;1.00;;;;;;;18.22;83.41;99778.19;4984389;28;20212;-72
2023/07/28 03:35:28;;;;;;;2.87;1.17;;;;;;;18.24;83.07;99775.91;4974772;28;20208;-72
2023/07/28 03:38:06;;;;;;;3.23;1.30;;;;;;;18.26;83.16;99784.28;4977167;28;20327;-72
2023/07/28 03:40:33;;;;;;;1.53;1.10;;;;;;;18.26;83.04;99775.53;4989441;28;20214;-72
2023/07/28 03:43:01;;;;;;;2.93;1.00;;;;;;;18.26;83.19;99776.25;4975245;28;20247;-72
2023/07/28 03:45:28;;;;;;;3.87;1.10;;;;;;;18.26;83.58;99775.53;4977784;28;20211;-72
2023/07/28 03:47:54;;;;;;;1.10;1.00;;;;;;;18.30;83.37;99781.56;4976839;28;20239;-72
2023/07/28 03:50:21;;;;;;;1.10;1.00;;;;;;;18.31;83.32;99780.44;4976444;28;21376;-72
2023/07/28 03:52:47;;;;;;;0.90;0.90;;;;;;;18.31;83.06;99772.41;4992898;28;20592;-72
2023/07/28 03:55:14;;;;;;;1.30;0.97;;;;;;;18.32;83.41;99765.94;4993366;28;20383;-70
2023/07/28 03:57:40;;;;;;;0.80;0.80;;;;;;;18.35;82.95;99770.47;4976841;28;20223;-72
2023/07/28 04:00:09;;;;;;;1.50;1.10;;;;;;;18.36;82.80;99770.09;4976595;28;20822;-71
2023/07/28 04:02:42;;;;;;;0.93;0.83;;;;;;;18.36;83.16;99767.41;4976066;28;20211;-71
2023/07/28 04:05:08;;;;;;;1.17;1.07;;;;;;;18.37;83.11;99768.94;4976670;28;20226;-71
2023/07/28 04:07:35;;;;;;;2.00;0.90;;;;;;;18.38;83.04;99765.09;4978726;28;20235;-71
2023/07/28 04:10:01;;;;;;;2.27;0.83;;;;;;;18.39;83.09;99765.88;4976339;28;20211;-71
2023/07/28 04:12:28;;;;;;;2.13;0.90;;;;;;;18.40;82.84;99764.72;4974040;28;20459;-70
2023/07/28 04:14:56;;;;;;;1.10;0.80;;;;;;;18.42;82.86;99775.78;4973344;28;20219;-71
2023/07/28 04:17:24;;;;;;;1.20;1.10;;;;;;;18.42;83.06;99773.84;4992113;28;20624;-70
2023/07/28 04:19:50;;;;;;;1.03;0.93;;;;;;;18.41;83.21;99779.59;4976626;28;20204;-72
2023/07/28 04:22:21;;;;;;;1.47;1.00;;;;;;;18.42;83.25;99778.47;4974982;28;20955;-71
2023/07/28 04:24:48;;;;;;;3.70;1.10;;;;;;;18.44;83.13;99776.13;4991532;28;21548;-71
2023/07/28 04:27:15;;;;;;;3.57;1.13;;;;;;;18.46;82.92;99781.84;4973051;28;22213;-71
2023/07/28 04:29:42;;;;;;;1.93;1.27;;;;;;;18.49;83.07;99794.41;4974784;28;20295;-71
2023/07/28 04:32:11;;;;;;;3.67;1.30;;;;;;;18.51;82.89;99784.84;4974932;28;20208;-71
2023/07/28 04:34:39;;;;;;;2.20;1.30;;;;;;;18.53;82.95;99782.53;4975465;28;20223;-71
2023/07/28 04:37:11;;;;;;;0.93;0.93;;;;;;;18.55;83.01;99776.78;4990213;28;20804;-72
2023/07/28 04:39:45;;;;;;;2.87;1.20;;;;;;;18.59;83.11;99782.88;4974366;28;20609;-70
2023/07/28 04:42:14;;;;;;;1.20;1.10;;;;;;;18.58;83.13;99786.69;4973569;28;20208;-71
2023/07/28 04:44:46;;;;;;;3.00;1.40;;;;;;;18.60;82.79;99803.88;4973723;28;21325;-71
2023/07/28 04:47:12;;;;;;;1.30;1.20;;;;;;;18.64;82.75;99795.81;4976145;28;20236;-72
2023/07/28 04:49:40;;;;;;;1.20;1.10;;;;;;;18.62;82.74;99798.13;4990178;28;20297;-71
2023/07/28 04:52:08;;;;;;;2.90;1.20;;;;;;;18.63;82.43;99797.69;4975144;28;20692;-71
2023/07/28 04:54:46;;;;;;;5.20;1.00;;;;;;;18.65;82.35;99806.09;4988913;28;20204;-71
2023/07/28 04:57:13;;;;;;;1.57;1.10;;;;;;;18.65;82.50;99798.09;4973758;28;20227;-70
2023/07/28 04:59:39;;;;;;;1.20;1.00;;;;;;;18.70;82.47;99807.56;4991142;28;20514;-70
2023/07/28 05:02:06;;;;;;;1.33;1.20;;;;;;;18.71;82.32;99804.50;4976652;28;20211;-70
2023/07/28 05:04:33;;;;;;;3.20;1.20;;;;;;;18.70;82.43;99804.91;4974937;28;20324;-71
2023/07/28 05:07:01;;;;;;;2.70;1.30;;;;;;;18.75;82.35;99804.47;4976110;28;20975;-72
2023/07/28 05:09:28;;;;;;;1.27;1.17;;;;;;;18.78;82.18;99807.09;4992213;28;20406;-72
2023/07/28 05:11:54;;;;;;;1.30;1.20;;;;;;;18.82;82.26;99807.84;4993096;28;20211;-71
2023/07/28 05:14:21;;;;;;;1.63;1.10;;;;;;;18.84;82.21;99800.16;4993126;28;20216;-72
2023/07/28 05:16:47;;;;;;;3.00;1.13;;;;;;;18.85;82.08;99804.38;4977194;28;20394;-71
2023/07/28 05:19:26;;;;;;;1.30;1.20;;;;;;;18.89;82.03;99807.75;4993567;28;20324;-72
2023/07/28 05:22:03;;;;;;;2.13;1.20;;;;;;;18.90;82.21;99798.59;4975133;28;20337;-72
2023/07/28 05:24:52;;;;;;;1.40;1.30;;;;;;;18.96;81.88;99804.25;4975535;28;20302;-72
2023/07/28 05:27:18;;;;;;;2.30;1.33;;;;;;;18.95;81.79;99810.75;4974514;28;20686;-71
2023/07/28 05:29:47;;;;;;;2.57;1.33;;;;;;;18.97;81.91;99821.81;4974387;28;20200;-72
2023/07/28 05:32:13;;;;;;;2.03;1.27;;;;;;;18.99;81.67;99809.53;4972840;28;21211;-72
2023/07/28 05:34:58;;;;;;;4.10;1.20;;;;;;;19.00;81.50;99813.72;4976833;28;20703;-71
2023/07/28 05:37:26;;;;;;;1.53;1.03;;;;;;;19.02;81.23;99811.44;4974928;28;20220;-72
2023/07/28 05:39:53;;;;;;;1.47;1.20;;;;;;;19.01;81.28;99819.84;4969647;28;20393;-72
2023/07/28 05:42:21;;;;;;;1.37;1.27;;;;;;;19.02;81.39;99819.47;4987590;28;20204;-72
2023/07/28 05:44:48;;;;;;;1.57;1.30;;;;;;;19.04;81.58;99811.78;4974004;28;20215;-71
2023/07/28 05:47:15;;;;;;;1.77;1.60;;;;;;;19.08;81.29;99817.09;4975004;28;20235;-71
2023/07/28 05:49:41;;;;;;;1.50;1.40;;;;;;;19.12;81.52;99815.91;4972508;28;20606;-72
2023/07/28 05:52:08;;;;;;;1.50;1.40;;;;;;;19.21;81.70;99820.78;4977113;28;20412;-72
2023/07/28 05:54:36;;;;;;;1.67;1.57;;;;;;;19.29;81.52;99819.53;4991246;28;20216;-72
2023/07/28 05:57:02;;;;;;;1.97;1.30;;;;;;;19.38;81.50;99820.59;4977311;28;20206;-71
2023/07/28 05:59:29;;;;;;;5.97;1.40;;;;;;;19.47;81.17;99818.19;4992185;28;21478;-71
2023/07/28 06:01:56;;;;;;;2.20;1.10;;;;;;;19.58;81.14;99828.72;4968552;28;20484;-72
2023/07/28 06:04:34;;;;;;;2.20;1.13;;;;;;;19.65;80.57;99828.63;4973583;28;20246;-71
2023/07/28 06:07:03;;;;;;;1.20;1.10;;;;;;;19.69;80.18;99823.97;4974809;28;20223;-72
2023/07/28 06:09:29;;;;;;;1.17;1.00;;;;;;;19.76;80.29;99829.25;4972119;28;21069;-72
2023/07/28 06:11:57;;;;;;;1.83;0.90;;;;;;;19.79;80.30;99837.25;4971963;28;20220;-71
2023/07/28 06:14:26;;;;;;;1.30;1.20;;;;;;;19.82;80.54;99838.34;4991263;28;20416;-71
2023/07/28 06:16:53;;;;;;;1.00;1.00;;;;;;;19.81;79.85;99842.94;4989067;28;20204;-72
2023/07/28 06:19:23;;;;;;;3.60;1.10;;;;;;;19.80;79.93;99836.06;4972587;28;20215;-72
2023/07/28 06:21:51;;;;;;;2.67;1.03;;;;;;;19.81;80.72;99844.88;4971577;28;20339;-72
2023/07/28 06:24:18;;;;;;;1.37;1.23;;;;;;;19.87;80.67;99843.25;4972695;28;20585;-72
2023/07/28 06:26:44;;;;;;;1.80;1.20;;;;;;;19.91;80.67;99843.94;4974289;28;20930;-72
2023/07/28 06:29:12;;;;;;;2.93;1.27;;;;;;;19.96;80.32;99851.53;4972865;28;20224;-70
2023/07/28 06:31:38;;;;;;;1.00;1.00;;;;;;;20.04;80.12;99853.72;4975362;28;20206;-71
2023/07/28 06:34:05;;;;;;;2.13;0.93;;;;;;;20.10;80.29;99860.16;4972665;28;20212;-72
2023/07/28 06:36:31;;;;;;;2.03;0.97;;;;;;;20.16;80.13;99861.22;4972056;28;21759;-72
2023/07/28 06:38:58;;;;;;;1.00;0.90;;;;;;;20.20;80.12;99869.22;4974347;28;20251;-71
2023/07/28 06:41:25;;;;;;;0.90;0.90;;;;;;;20.19;79.12;99873.06;4972730;28;20208;-71
2023/07/28 06:43:58;;;;;;;3.20;0.90;;;;;;;20.19;78.36;99879.16;4974771;28;20203;-72
2023/07/28 06:46:26;;;;;;;1.87;0.97;;;;;;;20.23;78.25;99879.88;4967412;28;20243;-72
2023/07/28 06:48:53;;;;;;;1.30;1.10;;;;;;;20.22;79.29;99881.03;4973624;28;21402;-72
2023/07/28 06:51:20;;;;;;;0.80;0.80;;;;;;;20.21;77.86;99886.81;4988587;28;20208;-73
2023/07/28 06:53:46;;;;;;;3.23;1.03;;;;;;;20.19;77.30;99895.25;4972625;28;20203;-73
2023/07/28 06:56:12;;;;;;;1.10;1.00;;;;;;;20.19;78.20;99889.88;4974263;28;20799;-72
2023/07/28 06:58:39;;;;;;;2.17;0.90;;;;;;;20.18;77.70;99895.69;4971501;28;20243;-73
2023/07/28 07:01:05;;;;;;;1.20;0.80;;;;;;;20.23;77.85;99889.84;4971943;28;20594;-72
2023/07/28 07:03:33;;;;;;;1.00;0.90;;;;;;;20.23;77.69;99904.00;4971941;28;20208;-72
2023/07/28 07:05:59;;;;;;;1.23;1.13;;;;;;;20.29;78.05;99909.69;4987329;28;20219;-73
2023/07/28 07:08:26;;;;;;;0.80;0.80;;;;;;;20.35;76.80;99908.81;4988642;28;20238;-73
2023/07/28 07:10:53;;;;;;;3.27;1.00;;;;;;;20.41;76.68;99914.47;4972853;28;20196;-72
2023/07/28 07:13:20;;;;;;;1.13;0.87;;;;;;;20.45;76.80;99905.22;4969351;28;20235;-71
2023/07/28 07:15:47;;;;;;;1.40;0.97;;;;;;;20.52;76.28;99907.78;4970451;28;20286;-72
2023/07/28 07:18:13;;;;;;;1.53;0.80;;;;;;;20.59;78.00;99914.97;4971553;28;20364;-71
2023/07/28 07:20:41;;;;;;;1.00;0.80;;;;;;;20.64;77.04;99911.81;4972483;28;20320;-71
2023/07/28 07:23:08;;;;;;;1.37;0.83;;;;;;;20.65;75.84;99911.38;4971648;28;20208;-71
2023/07/28 07:25:34;;;;;;;1.63;1.00;;;;;;;20.74;76.36;99908.94;4968919;28;20212;-71
2023/07/28 07:28:04;;;;;;;1.03;0.80;;;;;;;20.83;77.21;99911.84;4970614;28;21043;-71
2023/07/28 07:30:33;;;;;;;1.77;0.80;;;;;;;20.92;76.47;99906.75;4968767;28;20230;-70
2023/07/28 07:32:59;;;;;;;2.30;1.00;;;;;;;21.02;74.02;99915.78;4967583;28;20338;-72
2023/07/28 07:35:26;;;;;;;0.77;0.77;;;;;;;21.09;73.86;99913.72;4973463;28;20219;-72
2023/07/28 07:37:53;;;;;;;1.40;0.70;;;;;;;21.23;74.35;99929.56;4969253;28;21511;-72
2023/07/28 07:40:20;;;;;;;3.30;1.00;;;;;;;21.27;73.20;99921.44;4971903;28;20219;-71
2023/07/28 07:42:47;;;;;;;1.40;0.60;;;;;;;21.25;73.18;99921.09;4974125;28;20594;-71
2023/07/28 07:45:14;;;;;;;1.10;0.80;;;;;;;21.25;73.93;99927.22;4976272;28;20270;-71
2023/07/28 07:47:41;;;;;;;0.63;0.63;;;;;;;21.29;73.23;99927.91;4976090;28;20224;-70
2023/07/28 07:50:09;;;;;;;1.60;0.70;;;;;;;21.35;72.48;99930.88;4974803;28;20224;-71
2023/07/28 07:52:36;;;;;;;0.80;0.80;;;;;;;21.38;73.06;99922.75;4974136;28;20298;-71
2023/07/28 07:55:04;;;;;;;0.70;0.70;;;;;;;21.35;72.02;99918.22;4976078;28;20218;-71
2023/07/28 07:57:31;;;;;;;1.80;1.03;;;;;;;21.38;75.22;99917.38;4973149;28;20305;-70
2023/07/28 07:59:58;;;;;;;1.40;0.80;;;;;;;21.46;72.35;99921.44;4974833;28;20891;-71
2023/07/28 08:02:25;;;;;;;1.33;0.80;;;;;;;21.50;71.88;99918.69;4974240;28;20310;-71
2023/07/28 08:04:53;;;;;;;0.80;0.80;;;;;;;21.58;71.89;99909.31;4975192;28;20208;-71
2023/07/28 08:07:20;;;;;;;3.27;0.80;;;;;;;21.66;72.18;99911.44;4972915;28;21429;-70
2023/07/28 08:09:46;;;;;;;1.33;0.70;;;;;;;21.76;72.81;99917.78;4973723;28;20843;-71
2023/07/28 08:12:15;;;;;;;0.87;0.80;;;;;;;21.82;73.62;99910.75;4974836;28;20239;-70
2023/07/28 08:14:42;;;;;;;1.20;0.87;;;;;;;21.88;71.24;99899.09;4990717;28;20204;-71
2023/07/28 08:17:09;;;;;;;1.25;0.98;;;;;;;21.93;70.64;99906.66;4974994;28;20216;-71
2023/07/28 08:19:35;;;;;;;0.95;0.80;;;;;;;22.01;71.11;99916.09;4974349;28;20795;-71
2023/07/28 08:22:03;;;;;;;1.10;1.00;;;;;;;22.07;70.58;99913.66;4974932;28;20214;-70
2023/07/28 08:24:29;;;;;;;0.80;0.80;;;;;;;22.17;71.86;99905.38;4974497;28;20208;-70
2023/07/28 08:26:56;;;;;;;1.25;0.70;;;;;;;22.23;69.52;99905.59;4975284;28;20212;-70
2023/07/28 08:29:23;;;;;;;0.70;0.70;;;;;;;22.28;69.16;99911.25;4972837;28;20623;-71
2023/07/28 08:31:50;;;;;;;1.27;0.77;;;;;;;22.35;70.58;99919.16;4973191;28;20227;-70
2023/07/28 08:34:17;;;;;;;0.80;0.80;;;;;;;22.48;69.76;99915.84;4974299;28;20352;-72
2023/07/28 08:36:44;;;;;;;1.73;1.00;;;;;;;22.59;70.13;99917.06;4973333;28;20679;-71
2023/07/28 08:39:11;;;;;;;3.60;0.82;;;;;;;22.69;69.16;99918.75;4975460;28;20432;-71
2023/07/28 08:41:38;;;;;;;0.70;0.70;;;;;;;22.82;68.07;99924.97;4988349;28;20614;-71
2023/07/28 08:44:05;;;;;;;1.83;0.80;;;;;;;22.93;67.44;99928.88;4976000;28;20631;-71
2023/07/28 08:46:34;;;;;;;0.70;0.70;;;;;;;23.04;68.29;99923.25;4973202;28;20219;-71
2023/07/28 08:49:00;;;;;;;2.08;0.82;;;;;;;23.11;66.37;99931.13;4966946;28;21368;-71
2023/07/28 08:51:27;;;;;;;1.08;1.00;;;;;;;23.15;68.67;99937.94;4973679;28;20208;-71
2023/07/28 08:53:53;;;;;;;1.15;0.80;;;;;;;23.10;64.23;99935.00;4975427;28;20208;-71
2023/07/28 08:56:21;;;;;;;0.52;0.52;;;;;;;23.16;65.18;99930.59;4972778;28;20326;-70
2023/07/28 08:58:48;;;;;;;1.13;0.80;;;;;;;23.19;64.20;99933.22;4969598;28;20465;-70
2023/07/28 09:01:15;;;;;;;1.95;0.60;;;;;;;23.12;63.60;99938.78;4973058;28;21539;-70
2023/07/28 09:03:43;;;;;;;0.82;0.65;;;;;;;23.07;64.27;99943.94;4972104;28;20214;-70
2023/07/28 09:06:09;;;;;;;0.98;0.88;;;;;;;22.87;63.48;99946.00;4975366;28;21198;-69
2023/07/28 09:08:37;;;;;;;2.35;0.70;;;;;;;22.83;66.53;99950.72;4973457;28;20228;-69
2023/07/28 09:11:05;;;;;;;0.80;0.80;;;;;;;22.83;64.56;99951.47;4973115;28;20210;-70
2023/07/28 09:13:37;;;;;;;1.35;0.82;;;;;;;22.90;64.89;99958.59;4971308;28;20231;-70
2023/07/28 09:16:04;;;;;;;1.35;0.85;;;;;;;22.97;63.64;99953.78;4975497;28;20910;-70
2023/07/28 09:18:30;;;;;;;1.17;0.80;;;;;;;23.13;64.71;99953.75;4974301;28;22318;-70
2023/07/28 09:20:58;;;;;;;0.70;0.70;;;;;;;23.18;63.79;99960.63;4975190;28;20680;-69
2023/07/28 09:23:29;;;;;;;1.50;0.93;;;;;;;23.23;64.94;99970.09;4969971;28;20215;-70
2023/07/28 09:26:00;;;;;;;1.50;0.98;;;;;;;23.12;62.67;99965.72;4968291;28;21021;-71
2023/07/28 09:28:37;;;;;;;0.68;0.68;;;;;;;23.18;62.77;99971.38;4970679;28;21220;-69
2023/07/28 09:31:05;;;;;;;0.73;0.60;;;;;;;23.26;64.71;99972.69;4972201;28;20347;-69
2023/07/28 09:33:32;;;;;;;0.60;0.60;;;;;;;23.19;61.80;99975.59;4969390;28;20488;-70
2023/07/28 09:36:08;;;;;;;0.70;0.70;;;;;;;23.27;62.25;99973.47;4971254;28;21250;-72
2023/07/28 09:38:37;;;;;;;0.93;0.90;;;;;;;23.29;63.37;99978.00;4972791;28;20221;-71
2023/07/28 09:41:07;;;;;;;1.08;0.73;;;;;;;23.45;64.99;99974.50;4976606;28;20215;-71
2023/07/28 09:43:33;;;;;;;0.80;0.80;;;;;;;23.55;63.74;99976.16;4974682;28;20212;-71
2023/07/28 09:46:01;;;;;;;2.80;0.98;;;;;;;23.74;65.57;99981.38;4971182;28;20204;-72
2023/07/28 09:48:32;;;;;;;0.90;0.90;;;;;;;23.74;61.91;99984.09;4972997;28;20228;-72
2023/07/28 09:51:04;;;;;;;0.75;0.70;;;;;;;23.81;62.69;99981.19;4976438;28;20215;-73
2023/07/28 09:53:33;;;;;;;0.77;0.77;;;;;;;23.80;62.52;99987.75;4968426;28;20223;-72
2023/07/28 09:56:00;;;;;;;1.58;0.95;;;;;;;23.69;60.94;99997.34;4960863;28;20214;-72
2023/07/28 09:58:28;;;;;;;0.80;0.80;;;;;;;23.62;61.50;100000.22;4974129;28;20366;-73
2023/07/28 10:00:55;;;;;;;0.90;0.90;;;;;;;23.53;62.16;99994.69;4976250;28;20212;-72
2023/07/28 10:03:22;;;;;;;1.60;1.05;;;;;;;23.50;63.08;100009.03;4974510;28;20222;-73
2023/07/28 10:05:49;;;;;;;1.13;1.02;;;;;;;23.52;64.09;100007.41;4966952;28;20214;-71
2023/07/28 10:08:17;;;;;;;0.95;0.95;;;;;;;23.62;64.77;99994.81;4964785;28;20228;-72
2023/07/28 10:10:43;;;;;;;1.02;0.70;;;;;;;23.67;63.31;99990.88;4970894;28;20216;-71
2023/07/28 10:13:20;;;;;;;1.00;1.00;;;;;;;23.76;63.52;99980.97;4967382;28;21632;-72
2023/07/28 10:15:47;;;;;;;1.00;0.90;;;;;;;23.86;63.61;99996.81;4972189;28;20421;-72
2023/07/28 10:18:14;;;;;;;1.88;0.90;;;;;;;24.02;64.27;99993.34;4976860;28;20229;-71
2023/07/28 10:20:43;;;;;;;0.90;0.90;;;;;;;24.08;61.75;99998.97;4974245;28;20813;-71
2023/07/28 10:23:13;;;;;;;1.98;1.00;;;;;;;24.10;61.63;99997.31;4973866;28;20318;-71
2023/07/28 10:25:43;;;;;;;1.00;1.00;;;;;;;24.08;61.24;100001.66;4973403;28;20215;-72
2023/07/28 10:28:27;;;;;;;1.10;0.77;;;;;;;24.07;61.69;100000.91;4976386;28;20858;-71
2023/07/28 10:30:54;;;;;;;1.15;0.95;;;;;;;24.00;62.08;100005.75;4973772;28;20214;-72
2023/07/28 10:33:30;;;;;;;1.02;0.93;;;;;;;23.95;61.93;100011.66;4975966;28;21242;-72
2023/07/28 10:35:56;;;;;;;1.15;1.05;;;;;;;23.93;63.81;100011.34;4975561;28;20215;-72
2023/07/28 10:38:31;;;;;;;1.75;1.10;;;;;;;23.86;64.09;100015.69;4973894;28;20235;-73
2023/07/28 10:41:14;;;;;;;1.17;1.17;;;;;;;23.82;64.91;100011.59;4971503;28;20242;-72
2023/07/28 10:43:42;;;;;;;1.10;1.10;;;;;;;23.94;65.60;100021.69;4967468;28;22598;-72
2023/07/28 10:46:11;;;;;;;2.28;1.23;;;;;;;24.01;65.04;100012.66;4971155;28;20659;-72
2023/07/28 10:48:41;;;;;;;1.65;0.90;;;;;;;24.10;62.94;100020.88;4974645;28;20830;-73
2023/07/28 10:51:08;;;;;;;0.70;0.70;;;;;;;24.30;62.47;100016.78;4974668;28;20231;-72
2023/07/28 10:53:34;;;;;;;0.90;0.90;;;;;;;24.48;62.74;100025.84;4975035;28;20204;-71
2023/07/28 10:56:03;;;;;;;0.93;0.90;;;;;;;24.62;61.95;100019.31;4974241;28;20212;-72
2023/07/28 10:58:32;;;;;;;0.88;0.82;;;;;;;24.69;60.39;100015.63;4974747;28;20247;-71
2023/07/28 11:00:59;;;;;;;1.35;1.00;;;;;;;24.73;59.56;100019.72;4974787;28;20812;-72
2023/07/28 11:03:25;;;;;;;0.80;0.70;;;;;;;24.77;60.09;100027.72;4977591;28;20215;-73
2023/07/28 11:05:52;;;;;;;0.70;0.70;;;;;;;24.77;59.55;100023.06;4973093;28;20219;-73
2023/07/28 11:08:19;;;;;;;0.80;0.80;;;;;;;24.72;60.98;100028.25;4976376;28;20907;-72
2023/07/28 11:10:45;;;;;;;1.08;0.77;;;;;;;24.57;59.03;100027.94;4973860;28;21579;-72
2023/07/28 11:13:12;;;;;;;0.70;0.70;;;;;;;24.56;57.42;100025.66;4973233;28;20406;-73
2023/07/28 11:15:40;;;;;;;0.70;0.70;;;;;;;24.56;58.83;100020.25;4977511;28;20460;-73
2023/07/28 11:18:06;;;;;;;0.80;0.80;;;;;;;24.56;58.37;100022.94;4980367;28;20238;-72
2023/07/28 11:20:34;;;;;;;0.80;0.80;;;;;;;24.49;59.35;100021.22;4978091;28;20208;-72
2023/07/28 11:23:03;;;;;;;1.35;0.80;;;;;;;24.50;58.83;100014.63;4977916;28;20219;-72
2023/07/28 11:25:30;;;;;;;2.85;0.65;;;;;;;24.61;59.11;100014.34;4977762;28;20325;-73
2023/07/28 11:27:57;;;;;;;0.80;0.80;;;;;;;24.72;59.12;100020.91;4978366;28;20227;-71
2023/07/28 11:30:25;;;;;;;0.80;0.60;;;;;;;24.88;59.45;100020.03;4980592;28;20250;-71
2023/07/28 11:32:53;;;;;;;1.02;1.00;;;;;;;25.05;58.39;100021.38;4976969;28;20212;-72
2023/07/28 11:35:23;;;;;;;0.70;0.70;;;;;;;25.18;58.88;100019.44;4980026;28;20218;-72